createdAt,value
2017-12-30T00:00:41.259Z,11.50
2017-12-30T00:03:08.876Z,11.50
2017-12-30T00:05:36.451Z,11.50
2017-12-30T00:08:04.021Z,11.50
2017-12-30T00:10:31.613Z,11.50
2017-12-30T00:12:59.202Z,11.50
2017-12-30T00:15:26.801Z,11.50
2017-12-30T00:17:54.394Z,11.50
2017-12-30T00:20:22.003Z,11.40
2017-12-30T00:22:49.572Z,11.40
2017-12-30T00:25:18.038Z,11.40
2017-12-30T00:27:45.606Z,11.50
2017-12-30T00:30:14.225Z,11.50
2017-12-30T00:32:41.838Z,11.40
2017-12-30T00:35:09.423Z,11.50
2017-12-30T00:37:37.034Z,11.50
2017-12-30T00:40:05.380Z,11.50
2017-12-30T00:42:33.712Z,11.40
2017-12-30T00:45:01.296Z,11.40
2017-12-30T00:47:28.880Z,11.40
2017-12-30T00:49:56.498Z,11.40
2017-12-30T00:52:24.068Z,11.40
2017-12-30T00:54:51.679Z,11.40
2017-12-30T00:57:19.276Z,11.40
2017-12-30T00:59:46.861Z,11.30
2017-12-30T01:02:14.452Z,11.30
2017-12-30T01:04:42.045Z,11.30
2017-12-30T01:07:10.409Z,11.30
2017-12-30T01:09:38.771Z,11.40
2017-12-30T01:12:06.386Z,11.40
2017-12-30T01:14:34.008Z,11.40
2017-12-30T01:17:01.580Z,11.40
2017-12-30T01:19:29.923Z,11.40
2017-12-30T01:21:57.492Z,11.30
2017-12-30T01:24:25.107Z,11.30
2017-12-30T01:26:52.697Z,11.30
2017-12-30T01:29:20.304Z,11.30
2017-12-30T01:31:48.644Z,11.20
2017-12-30T01:34:16.236Z,11.20
2017-12-30T01:36:44.586Z,11.20
2017-12-30T01:39:12.179Z,11.20
2017-12-30T01:41:40.535Z,11.30
2017-12-30T01:44:08.123Z,11.20
2017-12-30T01:46:36.511Z,11.30
2017-12-30T01:49:04.093Z,11.20
2017-12-30T01:51:31.663Z,11.20
2017-12-30T01:53:59.249Z,11.30
2017-12-30T01:56:30.078Z,11.30
2017-12-30T01:58:58.723Z,11.30
2017-12-30T02:01:26.306Z,11.30
2017-12-30T02:03:53.922Z,11.30
2017-12-30T02:06:22.284Z,11.20
2017-12-30T02:08:49.859Z,11.30
2017-12-30T02:11:18.205Z,11.20
2017-12-30T02:13:45.777Z,11.20
2017-12-30T02:16:13.438Z,11.20
2017-12-30T02:18:41.035Z,11.30
2017-12-30T02:21:09.363Z,11.30
2017-12-30T02:23:36.958Z,11.30
2017-12-30T02:26:05.310Z,11.30
2017-12-30T02:28:32.915Z,11.30
2017-12-30T02:31:00.483Z,11.30
2017-12-30T02:33:28.066Z,11.30
2017-12-30T02:35:55.647Z,11.30
2017-12-30T02:38:23.242Z,11.30
2017-12-30T02:40:51.618Z,11.30
2017-12-30T02:43:19.974Z,11.30
2017-12-30T02:45:47.572Z,11.30
2017-12-30T02:48:15.909Z,11.30
2017-12-30T02:50:43.484Z,11.30
2017-12-30T02:53:11.086Z,11.30
2017-12-30T02:55:38.693Z,11.30
2017-12-30T02:58:06.264Z,11.30
2017-12-30T03:00:33.846Z,11.30
2017-12-30T03:03:02.190Z,11.20
2017-12-30T03:05:29.802Z,11.20
2017-12-30T03:07:57.383Z,11.20
2017-12-30T03:10:24.984Z,11.20
2017-12-30T03:12:52.556Z,11.30
2017-12-30T03:15:20.897Z,11.20
2017-12-30T03:17:48.496Z,11.20
2017-12-30T03:20:16.850Z,11.20
2017-12-30T03:22:44.446Z,11.20
2017-12-30T03:25:12.808Z,11.20
2017-12-30T03:27:41.160Z,11.20
2017-12-30T03:30:08.751Z,11.20
2017-12-30T03:32:36.359Z,11.30
2017-12-30T03:35:04.949Z,11.30
2017-12-30T03:37:32.526Z,11.30
2017-12-30T03:40:00.111Z,11.20
2017-12-30T03:42:27.705Z,11.20
2017-12-30T03:44:55.290Z,11.20
2017-12-30T03:47:22.902Z,11.20
2017-12-30T03:49:51.255Z,11.20
2017-12-30T03:52:18.851Z,11.10
2017-12-30T03:54:47.201Z,11.20
2017-12-30T03:57:14.777Z,11.20
2017-12-30T03:59:43.155Z,11.20
2017-12-30T04:02:11.492Z,11.20
2017-12-30T04:04:39.074Z,11.20
2017-12-30T04:07:06.662Z,11.20
2017-12-30T04:09:35.022Z,11.20
2017-12-30T04:12:02.634Z,11.20
2017-12-30T04:14:30.226Z,11.20
2017-12-30T04:16:57.808Z,11.20
2017-12-30T04:19:25.382Z,11.20
2017-12-30T04:21:53.723Z,11.20
2017-12-30T04:24:21.327Z,11.20
2017-12-30T04:26:49.682Z,11.10
2017-12-30T04:29:17.268Z,11.10
2017-12-30T04:31:45.604Z,11.10
2017-12-30T04:34:13.197Z,11.10
2017-12-30T04:36:41.585Z,11.00
2017-12-30T04:39:09.935Z,11.00
2017-12-30T04:41:37.512Z,11.00
2017-12-30T04:44:05.855Z,10.90
2017-12-30T04:46:33.433Z,10.90
2017-12-30T04:49:01.048Z,10.90
2017-12-30T04:51:28.624Z,10.90
2017-12-30T04:53:56.205Z,10.90
2017-12-30T04:56:23.790Z,10.90
2017-12-30T04:58:52.151Z,11.00
2017-12-30T05:01:19.762Z,11.00
2017-12-30T05:03:47.352Z,11.00
2017-12-30T05:06:14.945Z,10.90
2017-12-30T05:08:43.319Z,11.00
2017-12-30T05:11:10.899Z,10.90
2017-12-30T05:13:39.279Z,10.80
2017-12-30T05:16:07.617Z,10.90
2017-12-30T05:18:35.193Z,10.90
2017-12-30T05:21:02.768Z,10.90
2017-12-30T05:23:31.131Z,10.90
2017-12-30T05:25:58.743Z,10.90
2017-12-30T05:28:26.312Z,10.90
2017-12-30T05:30:53.893Z,10.90
2017-12-30T05:33:21.479Z,10.90
2017-12-30T05:35:49.063Z,10.90
2017-12-30T05:38:17.432Z,10.90
2017-12-30T05:40:45.805Z,11.00
2017-12-30T05:43:14.171Z,11.00
2017-12-30T05:45:41.780Z,11.00
2017-12-30T05:48:09.355Z,11.00
2017-12-30T05:50:36.956Z,11.00
2017-12-30T05:53:04.535Z,11.00
2017-12-30T05:55:32.876Z,11.00
2017-12-30T05:58:00.457Z,11.00
2017-12-30T06:00:28.039Z,11.10
2017-12-30T06:02:56.422Z,11.10
2017-12-30T06:05:24.770Z,11.10
2017-12-30T06:07:52.340Z,11.00
2017-12-30T06:10:19.920Z,11.10
2017-12-30T06:12:47.516Z,11.00
2017-12-30T06:15:15.124Z,11.10
2017-12-30T06:17:43.472Z,11.00
2017-12-30T06:20:11.049Z,11.00
2017-12-30T06:22:38.630Z,11.00
2017-12-30T06:25:06.985Z,11.10
2017-12-30T06:27:36.595Z,11.00
2017-12-30T06:30:04.203Z,11.10
2017-12-30T06:32:31.797Z,11.10
2017-12-30T06:34:59.380Z,11.10
2017-12-30T06:37:26.972Z,11.10
2017-12-30T06:39:55.367Z,11.10
2017-12-30T06:42:22.960Z,11.10
2017-12-30T06:44:50.555Z,11.10
2017-12-30T06:47:18.133Z,11.10
2017-12-30T06:49:46.486Z,11.00
2017-12-30T06:52:14.084Z,11.00
2017-12-30T06:54:41.675Z,11.10
2017-12-30T06:57:09.253Z,11.00
2017-12-30T06:59:36.841Z,11.10
2017-12-30T07:02:05.185Z,11.10
2017-12-30T07:04:32.788Z,11.00
2017-12-30T07:07:01.149Z,11.10
2017-12-30T07:09:28.722Z,11.10
2017-12-30T07:11:57.074Z,11.10
2017-12-30T07:14:24.647Z,11.10
2017-12-30T07:16:52.255Z,11.10
2017-12-30T07:19:19.843Z,11.10
2017-12-30T07:21:47.432Z,11.00
2017-12-30T07:24:15.018Z,11.00
2017-12-30T07:26:42.597Z,11.10
2017-12-30T07:29:10.200Z,11.00
2017-12-30T07:31:37.788Z,11.10
2017-12-30T07:34:06.134Z,11.10
2017-12-30T07:36:33.711Z,11.10
2017-12-30T07:39:01.312Z,11.10
2017-12-30T07:41:28.934Z,11.10
2017-12-30T07:43:56.507Z,11.10
2017-12-30T07:46:24.858Z,11.10
2017-12-30T07:48:52.446Z,11.10
2017-12-30T07:51:20.794Z,11.10
2017-12-30T07:53:48.404Z,11.10
2017-12-30T07:56:15.988Z,11.10
2017-12-30T07:58:43.574Z,11.10
2017-12-30T08:01:11.159Z,11.10
2017-12-30T08:03:39.510Z,11.10
2017-12-30T08:06:07.118Z,11.10
2017-12-30T08:08:35.456Z,11.10
2017-12-30T08:11:03.036Z,11.10
2017-12-30T08:13:31.376Z,11.10
2017-12-30T08:15:58.944Z,11.10
2017-12-30T08:18:26.558Z,11.10
2017-12-30T08:20:54.133Z,11.20
2017-12-30T08:23:21.711Z,11.20
2017-12-30T08:25:49.284Z,11.20
2017-12-30T08:28:16.870Z,11.20
2017-12-30T08:30:44.478Z,11.20
2017-12-30T08:33:12.058Z,11.20
2017-12-30T08:35:40.418Z,11.10
2017-12-30T08:38:07.982Z,11.10
2017-12-30T08:40:35.571Z,11.10
2017-12-30T08:43:03.194Z,11.10
2017-12-30T08:45:30.772Z,11.20
2017-12-30T08:47:58.395Z,11.20
2017-12-30T08:50:26.763Z,11.20
2017-12-30T08:52:55.121Z,11.20
2017-12-30T08:55:22.749Z,11.20
2017-12-30T08:57:50.329Z,11.20
2017-12-30T09:00:17.918Z,11.30
2017-12-30T09:02:46.272Z,11.30
2017-12-30T09:05:13.858Z,11.20
2017-12-30T09:07:42.251Z,11.30
2017-12-30T09:10:10.604Z,11.30
2017-12-30T09:12:38.200Z,11.20
2017-12-30T09:15:05.797Z,11.30
2017-12-30T09:17:33.416Z,11.20
2017-12-30T09:20:01.028Z,11.30
2017-12-30T09:22:28.631Z,11.30
2017-12-30T09:24:56.967Z,11.30
2017-12-30T09:27:24.537Z,11.30
2017-12-30T09:29:52.134Z,11.30
2017-12-30T09:32:19.749Z,11.30
2017-12-30T09:34:47.333Z,11.30
2017-12-30T09:37:14.954Z,11.30
2017-12-30T09:39:42.534Z,11.40
2017-12-30T09:42:10.132Z,11.40
2017-12-30T09:44:38.491Z,11.40
2017-12-30T09:47:06.074Z,11.40
2017-12-30T09:49:34.440Z,11.40
2017-12-30T09:52:02.799Z,11.50
2017-12-30T09:54:30.371Z,11.50
2017-12-30T09:56:57.970Z,11.50
2017-12-30T09:59:25.581Z,11.60
2017-12-30T10:01:53.175Z,11.60
2017-12-30T10:04:21.512Z,11.70
2017-12-30T10:06:49.105Z,11.60
2017-12-30T10:09:17.485Z,11.60
2017-12-30T10:11:45.858Z,11.60
2017-12-30T10:14:14.216Z,11.60
2017-12-30T10:16:41.803Z,11.60
2017-12-30T10:19:10.165Z,11.60
2017-12-30T10:21:37.773Z,11.60
2017-12-30T10:24:05.372Z,11.70
2017-12-30T10:26:32.978Z,11.70
2017-12-30T10:29:01.337Z,11.70
2017-12-30T10:31:29.700Z,11.80
2017-12-30T10:33:57.356Z,11.70
2017-12-30T10:36:24.930Z,11.80
2017-12-30T10:38:52.505Z,11.80
2017-12-30T10:41:20.860Z,11.90
2017-12-30T10:43:48.432Z,11.90
2017-12-30T10:46:16.070Z,11.90
2017-12-30T10:48:43.656Z,11.90
2017-12-30T10:51:11.242Z,12.00
2017-12-30T10:53:38.835Z,12.10
2017-12-30T10:56:06.426Z,12.20
2017-12-30T10:58:34.057Z,12.30
2017-12-30T11:01:01.656Z,12.30
2017-12-30T11:03:29.262Z,12.30
2017-12-30T11:05:56.836Z,12.30
2017-12-30T11:08:24.416Z,12.30
2017-12-30T11:10:52.031Z,12.40
2017-12-30T11:13:19.631Z,12.30
2017-12-30T11:15:47.212Z,12.30
2017-12-30T11:18:14.832Z,12.40
2017-12-30T11:20:42.413Z,12.30
2017-12-30T11:23:10.031Z,12.30
2017-12-30T11:25:38.371Z,12.40
2017-12-30T11:28:05.940Z,12.40
2017-12-30T11:30:33.546Z,12.40
2017-12-30T11:33:01.122Z,12.40
2017-12-30T11:35:28.742Z,12.40
2017-12-30T11:37:57.076Z,12.40
2017-12-30T11:40:25.450Z,12.40
2017-12-30T11:42:53.037Z,12.40
2017-12-30T11:45:20.622Z,12.40
2017-12-30T11:47:49.006Z,12.40
2017-12-30T11:50:17.363Z,12.40
2017-12-30T11:52:45.712Z,12.40
2017-12-30T11:55:13.318Z,12.40
2017-12-30T11:57:41.658Z,12.40
2017-12-30T12:00:09.290Z,12.40
2017-12-30T12:02:36.860Z,12.40
2017-12-30T12:05:04.446Z,12.50
2017-12-30T12:07:32.071Z,12.50
2017-12-30T12:09:59.682Z,12.60
2017-12-30T12:12:27.284Z,12.60
2017-12-30T12:14:54.881Z,12.60
2017-12-30T12:17:22.452Z,12.60
2017-12-30T12:19:50.037Z,12.60
2017-12-30T12:22:18.398Z,12.60
2017-12-30T12:24:46.003Z,12.60
2017-12-30T12:27:13.603Z,12.60
2017-12-30T12:29:41.177Z,12.50
2017-12-30T12:32:08.767Z,12.50
2017-12-30T12:34:37.127Z,12.50
2017-12-30T12:37:05.538Z,12.40
2017-12-30T12:39:33.128Z,12.40
2017-12-30T12:42:00.729Z,12.50
2017-12-30T12:44:28.329Z,12.40
2017-12-30T12:46:55.907Z,12.40
2017-12-30T12:49:23.528Z,12.40
2017-12-30T12:51:51.881Z,12.30
2017-12-30T12:54:19.485Z,12.30
2017-12-30T12:56:47.078Z,12.30
2017-12-30T12:59:15.443Z,12.30
2017-12-30T13:01:43.037Z,12.30
2017-12-30T13:04:10.631Z,12.30
2017-12-30T13:06:39.003Z,12.50
2017-12-30T13:09:07.339Z,12.50
2017-12-30T13:11:34.942Z,12.50
2017-12-30T13:14:03.338Z,12.50
2017-12-30T13:16:30.929Z,12.50
2017-12-30T13:18:58.516Z,12.50
2017-12-30T13:21:26.108Z,12.50
2017-12-30T13:23:54.486Z,12.40
2017-12-30T13:26:22.872Z,12.40
2017-12-30T13:28:51.210Z,12.40
2017-12-30T13:31:18.807Z,12.30
2017-12-30T13:33:47.174Z,12.40
2017-12-30T13:36:15.522Z,12.30
2017-12-30T13:38:43.135Z,12.30
2017-12-30T13:41:10.734Z,12.30
2017-12-30T13:43:38.322Z,12.30
2017-12-30T13:46:05.898Z,12.30
2017-12-30T13:48:34.261Z,12.20
2017-12-30T13:51:01.884Z,12.20
2017-12-30T13:53:29.478Z,12.20
2017-12-30T13:55:57.077Z,12.20
2017-12-30T13:58:24.653Z,12.20
2017-12-30T14:00:52.247Z,12.20
2017-12-30T14:03:19.865Z,12.10
2017-12-30T14:05:47.466Z,12.10
2017-12-30T14:08:15.057Z,12.10
2017-12-30T14:10:43.412Z,12.10
2017-12-30T14:13:11.009Z,12.00
2017-12-30T14:15:39.386Z,12.00
2017-12-30T14:18:07.751Z,12.00
2017-12-30T14:20:36.095Z,12.00
2017-12-30T14:23:03.713Z,12.00
2017-12-30T14:25:32.086Z,12.00
2017-12-30T14:28:00.485Z,11.90
2017-12-30T14:30:28.073Z,12.00
2017-12-30T14:32:55.656Z,12.00
2017-12-30T14:35:23.250Z,12.00
2017-12-30T14:37:51.591Z,11.90
2017-12-30T14:40:19.199Z,11.90
2017-12-30T14:42:46.798Z,11.90
2017-12-30T14:45:14.399Z,12.00
2017-12-30T14:47:42.758Z,12.00
2017-12-30T14:50:10.352Z,11.90
2017-12-30T14:52:38.730Z,12.00
2017-12-30T14:55:07.081Z,12.00
2017-12-30T14:57:34.673Z,11.90
2017-12-30T15:00:03.016Z,12.00
2017-12-30T15:02:31.667Z,11.90
2017-12-30T15:04:59.318Z,12.00
2017-12-30T15:07:26.928Z,11.90
2017-12-30T15:09:55.289Z,11.90
2017-12-30T15:12:22.908Z,11.90
2017-12-30T15:14:50.512Z,11.90
2017-12-30T15:17:18.081Z,11.90
2017-12-30T15:19:45.694Z,11.80
2017-12-30T15:22:13.295Z,11.80
2017-12-30T15:24:40.891Z,11.80
2017-12-30T15:27:09.261Z,11.80
2017-12-30T15:29:37.627Z,11.80
2017-12-30T15:32:05.209Z,11.80
2017-12-30T15:34:33.589Z,11.70
2017-12-30T15:37:01.939Z,11.70
2017-12-30T15:39:29.541Z,11.70
2017-12-30T15:41:57.176Z,11.80
2017-12-30T15:44:24.772Z,11.80
2017-12-30T15:46:52.366Z,11.80
2017-12-30T15:49:20.726Z,11.80
2017-12-30T15:51:48.326Z,11.70
2017-12-30T15:54:15.901Z,11.80
2017-12-30T15:56:44.264Z,11.80
2017-12-30T15:59:11.859Z,11.70
2017-12-30T16:01:40.242Z,11.80
2017-12-30T16:04:07.816Z,11.70
2017-12-30T16:06:35.424Z,11.80
2017-12-30T16:09:03.039Z,11.70
2017-12-30T16:11:30.659Z,11.70
2017-12-30T16:13:59.031Z,11.70
2017-12-30T16:16:26.625Z,11.70
2017-12-30T16:18:54.232Z,11.70
2017-12-30T16:21:21.851Z,11.70
2017-12-30T16:23:49.440Z,11.70
2017-12-30T16:26:17.042Z,11.70
2017-12-30T16:28:44.625Z,11.70
2017-12-30T16:31:13.011Z,11.70
2017-12-30T16:33:40.612Z,11.60
2017-12-30T16:36:08.204Z,11.70
2017-12-30T16:38:36.568Z,11.80
2017-12-30T16:41:04.191Z,11.70
2017-12-30T16:43:31.783Z,11.70
2017-12-30T16:45:59.411Z,11.70
2017-12-30T16:48:27.027Z,11.70
2017-12-30T16:50:55.386Z,11.70
2017-12-30T16:53:22.995Z,11.70
2017-12-30T16:55:50.602Z,11.70
2017-12-30T16:58:18.193Z,11.70
2017-12-30T17:00:46.539Z,11.70
2017-12-30T17:03:14.147Z,11.70
2017-12-30T17:05:42.491Z,11.70
2017-12-30T17:08:10.079Z,11.70
2017-12-30T17:10:38.451Z,11.70
2017-12-30T17:13:06.815Z,11.70
2017-12-30T17:15:34.411Z,11.70
2017-12-30T17:18:02.026Z,11.70
2017-12-30T17:20:29.623Z,11.70
2017-12-30T17:22:57.990Z,11.70
2017-12-30T17:25:26.376Z,11.70
2017-12-30T17:27:54.729Z,11.60
2017-12-30T17:30:22.333Z,11.60
2017-12-30T17:32:49.928Z,11.70
2017-12-30T17:35:17.504Z,11.70
2017-12-30T17:37:45.097Z,11.70
2017-12-30T17:40:13.472Z,11.80
2017-12-30T17:42:41.848Z,11.80
2017-12-30T17:45:10.209Z,11.80
2017-12-30T17:47:37.838Z,11.80
2017-12-30T17:50:05.462Z,11.80
2017-12-30T17:52:33.069Z,11.80
2017-12-30T17:55:02.693Z,11.80
2017-12-30T17:57:30.271Z,11.80
2017-12-30T17:59:57.892Z,11.80
2017-12-30T18:02:25.522Z,11.80
2017-12-30T18:04:53.885Z,11.80
2017-12-30T18:07:22.259Z,11.80
2017-12-30T18:09:50.638Z,11.80
2017-12-30T18:12:19.004Z,11.80
2017-12-30T18:14:47.378Z,11.80
2017-12-30T18:17:14.964Z,11.70
2017-12-30T18:19:43.321Z,11.70
2017-12-30T18:22:10.918Z,11.70
2017-12-30T18:24:38.512Z,11.70
2017-12-30T18:27:06.095Z,11.70
2017-12-30T18:29:33.689Z,11.70
2017-12-30T18:32:02.036Z,11.70
2017-12-30T18:34:29.632Z,11.70
2017-12-30T18:36:57.233Z,11.80
2017-12-30T18:39:24.859Z,11.80
2017-12-30T18:41:52.455Z,11.80
2017-12-30T18:44:20.050Z,11.80
2017-12-30T18:46:47.656Z,11.80
2017-12-30T18:49:15.254Z,11.80
2017-12-30T18:51:42.869Z,11.80
2017-12-30T18:54:10.457Z,11.80
2017-12-30T18:56:38.056Z,11.80
2017-12-30T18:59:05.717Z,11.70
2017-12-30T19:01:33.311Z,11.70
2017-12-30T19:04:00.904Z,11.70
2017-12-30T19:06:28.501Z,11.70
2017-12-30T19:08:56.095Z,11.70
2017-12-30T19:11:23.714Z,11.70
2017-12-30T19:13:51.311Z,11.70
2017-12-30T19:16:19.647Z,11.70
2017-12-30T19:18:47.253Z,11.70
2017-12-30T19:21:14.852Z,11.70
2017-12-30T19:23:42.480Z,11.70
2017-12-30T19:26:10.082Z,11.70
2017-12-30T19:28:37.675Z,11.70
2017-12-30T19:31:06.049Z,11.70
2017-12-30T19:33:33.638Z,11.70
2017-12-30T19:36:01.680Z,11.70
2017-12-30T19:38:29.271Z,11.70
2017-12-30T19:40:57.680Z,11.70
2017-12-30T19:43:25.281Z,11.70
2017-12-30T19:45:53.648Z,11.70
2017-12-30T19:48:21.261Z,11.70
2017-12-30T19:50:48.838Z,11.70
2017-12-30T19:53:16.419Z,11.70
2017-12-30T19:55:44.014Z,11.70
2017-12-30T19:58:12.393Z,11.60
2017-12-30T20:00:40.778Z,11.60
2017-12-30T20:03:09.133Z,11.60
2017-12-30T20:05:36.728Z,11.60
2017-12-30T20:08:05.078Z,11.60
2017-12-30T20:10:32.669Z,11.60
2017-12-30T20:13:00.289Z,11.60
2017-12-30T20:15:27.871Z,11.60
2017-12-30T20:17:56.220Z,11.60
2017-12-30T20:20:23.829Z,11.60
2017-12-30T20:22:51.458Z,11.60
2017-12-30T20:25:19.869Z,11.60
2017-12-30T20:27:47.467Z,11.60
2017-12-30T20:30:15.080Z,11.60
2017-12-30T20:32:43.425Z,11.70
2017-12-30T20:35:11.009Z,11.60
2017-12-30T20:37:39.398Z,11.60
2017-12-30T20:40:07.761Z,11.60
2017-12-30T20:42:35.377Z,11.60
2017-12-30T20:45:02.966Z,11.60
2017-12-30T20:47:30.551Z,11.70
2017-12-30T20:49:58.937Z,11.60
2017-12-30T20:52:26.542Z,11.60
2017-12-30T20:54:54.137Z,11.60
2017-12-30T20:57:21.731Z,11.60
2017-12-30T20:59:49.307Z,11.60
2017-12-30T21:02:16.926Z,11.60
2017-12-30T21:04:44.510Z,11.60
2017-12-30T21:07:12.877Z,11.60
2017-12-30T21:09:41.234Z,11.60
2017-12-30T21:12:08.820Z,11.60
2017-12-30T21:14:37.156Z,11.60
2017-12-30T21:17:04.739Z,11.60
2017-12-30T21:19:32.372Z,11.60
2017-12-30T21:21:59.956Z,11.60
2017-12-30T21:24:27.539Z,11.60
2017-12-30T21:26:55.903Z,11.60
2017-12-30T21:29:24.248Z,11.60
2017-12-30T21:31:51.882Z,11.50
2017-12-30T21:34:19.485Z,11.50
2017-12-30T21:36:47.125Z,11.60
2017-12-30T21:39:14.755Z,11.60
2017-12-30T21:41:42.349Z,11.60
2017-12-30T21:44:09.976Z,11.60
2017-12-30T21:46:37.590Z,11.60
2017-12-30T21:49:05.191Z,11.50
2017-12-30T21:51:33.552Z,11.60
2017-12-30T21:54:01.934Z,11.60
2017-12-30T21:56:30.330Z,11.60
2017-12-30T21:58:58.681Z,11.60
2017-12-30T22:01:27.055Z,11.70
2017-12-30T22:03:54.646Z,11.60
2017-12-30T22:06:23.004Z,11.60
2017-12-30T22:08:50.621Z,11.60
2017-12-30T22:11:18.215Z,11.60
2017-12-30T22:13:45.808Z,11.60
2017-12-30T22:16:14.171Z,11.60
2017-12-30T22:18:42.525Z,11.60
2017-12-30T22:21:10.146Z,11.60
2017-12-30T22:23:37.717Z,11.60
2017-12-30T22:26:05.301Z,11.60
2017-12-30T22:28:32.870Z,11.60
2017-12-30T22:31:00.473Z,11.60
2017-12-30T22:33:28.120Z,11.60
2017-12-30T22:35:56.488Z,11.60
2017-12-30T22:38:24.835Z,11.60
2017-12-30T22:40:52.411Z,11.60
2017-12-30T22:43:19.984Z,11.60
2017-12-30T22:45:48.380Z,11.60
2017-12-30T22:48:16.722Z,11.60
2017-12-30T22:50:44.315Z,11.60
2017-12-30T22:53:12.666Z,11.60
2017-12-30T22:55:40.259Z,11.60
2017-12-30T22:58:08.636Z,11.70
2017-12-30T23:00:37.019Z,11.60
2017-12-30T23:03:05.387Z,11.70
2017-12-30T23:05:33.739Z,11.70
2017-12-30T23:08:01.383Z,11.60
2017-12-30T23:10:29.009Z,11.60
2017-12-30T23:12:56.614Z,11.70
2017-12-30T23:15:24.184Z,11.70
2017-12-30T23:17:51.761Z,11.70
2017-12-30T23:20:19.378Z,11.70
2017-12-30T23:22:46.986Z,11.60
2017-12-30T23:25:14.570Z,11.70
2017-12-30T23:27:42.172Z,11.60
2017-12-30T23:30:09.748Z,11.60
2017-12-30T23:32:37.336Z,11.70
2017-12-30T23:35:04.948Z,11.70
2017-12-30T23:37:32.523Z,11.70
2017-12-30T23:40:00.112Z,11.70
2017-12-30T23:42:28.469Z,11.70
2017-12-30T23:44:56.058Z,11.70
2017-12-30T23:47:24.433Z,11.80
2017-12-30T23:49:52.790Z,11.80
2017-12-30T23:52:20.368Z,11.80
2017-12-30T23:54:48.720Z,11.90
2017-12-30T23:57:16.317Z,11.90
2017-12-30T23:59:44.695Z,11.90
